Aroya, Colorado
Current Conditions -  °F | °C
As of 11:55 PM on Saturday 22 Nov 2014 (Local Time) from KLIC Reporting Station
Few Clouds Few Clouds  
Wind Chill: 33°   Ceiling: Unl
Heat Index: 40°   Visibility: 10mi
Dew Point: 22°   Wind: 13mph
Humidity: 49%   Direction: 270°W
Pressure: 29.56"   Gusts: NA
Location:  38.8543°N, 103.125°W
Report Text: KLIC 230655Z AUTO 27011KT 10SM FEW110 04/M06 A2956 RMK AO2 SLP970 T00441056 401721083
Loading
Personal Weather Stations






























Interactive Weather Map New forecast layout! Learn more

10-Day Weather Forecast

Advertisements
Track Severe Weather on mobile